sensor_id;sensor_type;location;lat;lon;timestamp;pressure;altitude;pressure_sealevel;temperature;humidity
69982;BME280;57319;56.274;43.980;2023-02-28T00:02:20;99643.59;;;-8.38;72.38
69982;BME280;57319;56.274;43.980;2023-02-28T00:04:45;99643.91;;;-8.46;73.08
69982;BME280;57319;56.274;43.980;2023-02-28T00:07:18;99633.75;;;-8.63;73.38
69982;BME280;57319;56.274;43.980;2023-02-28T00:09:44;99632.72;;;-8.66;73.29
69982;BME280;57319;56.274;43.980;2023-02-28T00:12:09;99635.31;;;-8.78;73.67
69982;BME280;57319;56.274;43.980;2023-02-28T00:14:38;99652.66;;;-8.93;73.81
69982;BME280;57319;56.274;43.980;2023-02-28T00:17:03;99637.22;;;-8.88;74.08
69982;BME280;57319;56.274;43.980;2023-02-28T00:19:29;99636.19;;;-8.91;73.68
69982;BME280;57319;56.274;43.980;2023-02-28T00:21:55;99635.53;;;-8.89;73.93
69982;BME280;57319;56.274;43.980;2023-02-28T00:24:20;99632.81;;;-8.92;74.04
69982;BME280;57319;56.274;43.980;2023-02-28T00:26:46;99628.88;;;-8.88;74.12
69982;BME280;57319;56.274;43.980;2023-02-28T00:29:11;99638.38;;;-8.82;74.19
69982;BME280;57319;56.274;43.980;2023-02-28T00:31:37;99631.78;;;-8.82;73.83
69982;BME280;57319;56.274;43.980;2023-02-28T00:34:02;99624.28;;;-8.82;74.22
69982;BME280;57319;56.274;43.980;2023-02-28T00:36:28;99614.78;;;-8.88;73.85
69982;BME280;57319;56.274;43.980;2023-02-28T00:38:54;99620.34;;;-8.92;74.41
69982;BME280;57319;56.274;43.980;2023-02-28T00:41:19;99608.25;;;-8.99;74.62
69982;BME280;57319;56.274;43.980;2023-02-28T00:43:45;99603.75;;;-9.05;74.61
69982;BME280;57319;56.274;43.980;2023-02-28T00:46:10;99596.00;;;-9.09;75.13
69982;BME280;57319;56.274;43.980;2023-02-28T00:48:36;99596.09;;;-9.08;74.99
69982;BME280;57319;56.274;43.980;2023-02-28T00:51:02;99603.38;;;-9.11;75.16
69982;BME280;57319;56.274;43.980;2023-02-28T00:53:28;99591.50;;;-9.15;75.51
69982;BME280;57319;56.274;43.980;2023-02-28T00:55:54;99580.63;;;-9.15;75.62
69982;BME280;57319;56.274;43.980;2023-02-28T00:58:20;99586.03;;;-9.09;75.45
69982;BME280;57319;56.274;43.980;2023-02-28T01:00:45;99587.63;;;-9.10;75.78
69982;BME280;57319;56.274;43.980;2023-02-28T01:03:18;99585.44;;;-9.05;75.87
69982;BME280;57319;56.274;43.980;2023-02-28T01:05:44;99579.56;;;-9.06;75.92
69982;BME280;57319;56.274;43.980;2023-02-28T01:08:10;99572.56;;;-9.11;76.26
69982;BME280;57319;56.274;43.980;2023-02-28T01:10:36;99564.44;;;-9.09;76.05
69982;BME280;57319;56.274;43.980;2023-02-28T01:13:02;99559.25;;;-9.12;76.60
69982;BME280;57319;56.274;43.980;2023-02-28T01:15:28;99557.53;;;-9.13;76.31
69982;BME280;57319;56.274;43.980;2023-02-28T01:17:54;99541.50;;;-9.16;76.81
69982;BME280;57319;56.274;43.980;2023-02-28T01:20:19;99540.91;;;-9.12;76.10
69982;BME280;57319;56.274;43.980;2023-02-28T01:22:46;99536.63;;;-9.15;76.24
69982;BME280;57319;56.274;43.980;2023-02-28T01:25:12;99539.56;;;-9.21;76.44
69982;BME280;57319;56.274;43.980;2023-02-28T01:27:38;99536.81;;;-9.25;76.76
69982;BME280;57319;56.274;43.980;2023-02-28T01:30:06;99538.16;;;-9.30;76.74
69982;BME280;57319;56.274;43.980;2023-02-28T01:32:32;99542.94;;;-9.33;76.69
69982;BME280;57319;56.274;43.980;2023-02-28T01:34:57;99533.47;;;-9.39;76.89
69982;BME280;57319;56.274;43.980;2023-02-28T01:37:23;99533.84;;;-9.46;76.82
69982;BME280;57319;56.274;43.980;2023-02-28T01:39:49;99529.03;;;-9.43;77.58
69982;BME280;57319;56.274;43.980;2023-02-28T01:42:14;99534.31;;;-9.39;77.12
69982;BME280;57319;56.274;43.980;2023-02-28T01:45:22;99532.97;;;-9.47;77.55
69982;BME280;57319;56.274;43.980;2023-02-28T01:47:45;99537.84;;;-9.48;77.48
69982;BME280;57319;56.274;43.980;2023-02-28T01:50:25;99526.94;;;-9.50;77.96
69982;BME280;57319;56.274;43.980;2023-02-28T01:52:56;99527.59;;;-9.53;77.89
69982;BME280;57319;56.274;43.980;2023-02-28T01:55:25;99527.69;;;-9.51;77.27
69982;BME280;57319;56.274;43.980;2023-02-28T01:57:56;99528.34;;;-9.54;77.49
69982;BME280;57319;56.274;43.980;2023-02-28T02:00:26;99524.50;;;-9.62;77.88
69982;BME280;57319;56.274;43.980;2023-02-28T02:02:55;99518.38;;;-9.67;77.71
69982;BME280;57319;56.274;43.980;2023-02-28T02:05:24;99515.97;;;-9.66;78.58
69982;BME280;57319;56.274;43.980;2023-02-28T02:08:01;99505.75;;;-9.57;78.03
69982;BME280;57319;56.274;43.980;2023-02-28T02:10:40;99497.09;;;-9.62;77.95
69982;BME280;57319;56.274;43.980;2023-02-28T02:27:03;99469.03;;;-9.60;78.12
69982;BME280;57319;56.274;43.980;2023-02-28T02:39:52;99448.91;;;-9.63;78.74
69982;BME280;57319;56.274;43.980;2023-02-28T02:45:19;99443.84;;;-9.64;77.65
69982;BME280;57319;56.274;43.980;2023-02-28T02:47:48;99447.34;;;-9.74;77.84
69982;BME280;57319;56.274;43.980;2023-02-28T02:50:23;99443.75;;;-9.79;78.25
69982;BME280;57319;56.274;43.980;2023-02-28T02:52:54;99433.56;;;-9.82;78.12
69982;BME280;57319;56.274;43.980;2023-02-28T02:55:22;99429.16;;;-9.86;78.43
69982;BME280;57319;56.274;43.980;2023-02-28T02:57:58;99417.19;;;-9.92;78.25
69982;BME280;57319;56.274;43.980;2023-02-28T03:00:31;99417.84;;;-9.95;78.09
69982;BME280;57319;56.274;43.980;2023-02-28T03:02:59;99409.72;;;-9.92;78.82
69982;BME280;57319;56.274;43.980;2023-02-28T03:05:47;99395.81;;;-10.02;79.04
69982;BME280;57319;56.274;43.980;2023-02-28T03:08:13;99393.25;;;-10.03;79.08
69982;BME280;57319;56.274;43.980;2023-02-28T03:10:44;99382.53;;;-10.02;79.09
69982;BME280;57319;56.274;43.980;2023-02-28T03:19:02;99355.13;;;-10.16;79.79
69982;BME280;57319;56.274;43.980;2023-02-28T03:21:37;99347.75;;;-10.14;78.86
69982;BME280;57319;56.274;43.980;2023-02-28T03:26:50;99323.16;;;-10.23;79.41
69982;BME280;57319;56.274;43.980;2023-02-28T03:29:25;99313.00;;;-10.26;79.85
69982;BME280;57319;56.274;43.980;2023-02-28T03:31:58;99313.19;;;-10.23;79.42
69982;BME280;57319;56.274;43.980;2023-02-28T03:34:29;99294.13;;;-10.23;79.79
69982;BME280;57319;56.274;43.980;2023-02-28T03:37:10;99296.53;;;-10.24;79.67
69982;BME280;57319;56.274;43.980;2023-02-28T03:39:42;99293.47;;;-10.20;79.12
69982;BME280;57319;56.274;43.980;2023-02-28T03:42:13;99290.78;;;-10.23;79.04
69982;BME280;57319;56.274;43.980;2023-02-28T03:44:46;99278.53;;;-10.33;79.68
69982;BME280;57319;56.274;43.980;2023-02-28T03:47:38;99284.16;;;-10.23;79.48
69982;BME280;57319;56.274;43.980;2023-02-28T03:50:07;99275.38;;;-10.17;79.34
69982;BME280;57319;56.274;43.980;2023-02-28T03:52:37;99270.13;;;-10.22;79.46
69982;BME280;57319;56.274;43.980;2023-02-28T03:55:07;99268.56;;;-10.20;79.70
69982;BME280;57319;56.274;43.980;2023-02-28T04:02:33;99249.50;;;-10.19;78.93
69982;BME280;57319;56.274;43.980;2023-02-28T04:05:00;99242.63;;;-10.24;78.93
69982;BME280;57319;56.274;43.980;2023-02-28T04:07:29;99242.53;;;-10.25;79.14
69982;BME280;57319;56.274;43.980;2023-02-28T04:10:03;99229.91;;;-10.28;79.06
69982;BME280;57319;56.274;43.980;2023-02-28T04:12:29;99223.19;;;-10.29;78.86
69982;BME280;57319;56.274;43.980;2023-02-28T04:14:55;99216.41;;;-10.32;78.92
69982;BME280;57319;56.274;43.980;2023-02-28T04:17:20;99205.44;;;-10.35;78.71
69982;BME280;57319;56.274;43.980;2023-02-28T04:19:46;99208.47;;;-10.26;78.78
69982;BME280;57319;56.274;43.980;2023-02-28T04:22:12;99205.69;;;-10.31;78.98
69982;BME280;57319;56.274;43.980;2023-02-28T04:24:37;99208.94;;;-10.32;78.86
69982;BME280;57319;56.274;43.980;2023-02-28T04:27:06;99187.28;;;-10.34;78.77
69982;BME280;57319;56.274;43.980;2023-02-28T04:29:33;99182.69;;;-10.27;78.39
69982;BME280;57319;56.274;43.980;2023-02-28T04:31:59;99165.19;;;-10.28;78.39
69982;BME280;57319;56.274;43.980;2023-02-28T04:34:26;99164.53;;;-10.26;78.84
69982;BME280;57319;56.274;43.980;2023-02-28T04:36:53;99163.34;;;-10.17;78.67
69982;BME280;57319;56.274;43.980;2023-02-28T04:39:21;99157.47;;;-10.04;77.73
69982;BME280;57319;56.274;43.980;2023-02-28T04:41:47;99153.03;;;-9.95;77.98
69982;BME280;57319;56.274;43.980;2023-02-28T04:44:13;99151.84;;;-9.87;77.23
69982;BME280;57319;56.274;43.980;2023-02-28T04:46:40;99148.31;;;-9.91;77.22
69982;BME280;57319;56.274;43.980;2023-02-28T04:49:05;99132.78;;;-9.86;76.89
69982;BME280;57319;56.274;43.980;2023-02-28T04:51:31;99136.78;;;-9.75;77.12
69982;BME280;57319;56.274;43.980;2023-02-28T04:53:57;99134.78;;;-9.66;76.44
69982;BME280;57319;56.274;43.980;2023-02-28T04:56:23;99135.69;;;-9.50;76.58
69982;BME280;57319;56.274;43.980;2023-02-28T04:58:49;99129.50;;;-9.42;75.64
69982;BME280;57319;56.274;43.980;2023-02-28T05:01:33;99131.41;;;-9.23;75.05
69982;BME280;57319;56.274;43.980;2023-02-28T05:04:02;99125.44;;;-9.10;74.94
69982;BME280;57319;56.274;43.980;2023-02-28T05:06:29;99129.47;;;-8.97;74.59
69982;BME280;57319;56.274;43.980;2023-02-28T05:08:55;99132.22;;;-8.93;73.83
69982;BME280;57319;56.274;43.980;2023-02-28T05:11:25;99124.75;;;-8.93;73.39
69982;BME280;57319;56.274;43.980;2023-02-28T05:13:51;99131.25;;;-8.80;73.35
69982;BME280;57319;56.274;43.980;2023-02-28T05:16:18;99133.22;;;-8.74;72.52
69982;BME280;57319;56.274;43.980;2023-02-28T05:18:44;99094.59;;;-8.81;72.39
69982;BME280;57319;56.274;43.980;2023-02-28T05:23:51;99117.28;;;-8.61;71.79
69982;BME280;57319;56.274;43.980;2023-02-28T05:26:17;99090.28;;;-8.52;71.53
69982;BME280;57319;56.274;43.980;2023-02-28T05:28:43;99092.34;;;-8.45;70.83
69982;BME280;57319;56.274;43.980;2023-02-28T05:31:12;99074.47;;;-8.36;70.58
69982;BME280;57319;56.274;43.980;2023-02-28T05:33:38;99085.00;;;-8.25;70.04
69982;BME280;57319;56.274;43.980;2023-02-28T05:36:05;99063.63;;;-8.20;70.21
69982;BME280;57319;56.274;43.980;2023-02-28T05:38:31;99068.50;;;-8.05;69.79
69982;BME280;57319;56.274;43.980;2023-02-28T05:40:57;99066.41;;;-7.97;69.61
69982;BME280;57319;56.274;43.980;2023-02-28T05:43:23;99050.78;;;-7.93;69.17
69982;BME280;57319;56.274;43.980;2023-02-28T05:45:48;99046.75;;;-7.91;69.32
69982;BME280;57319;56.274;43.980;2023-02-28T05:48:14;99019.53;;;-7.85;69.57
69982;BME280;57319;56.274;43.980;2023-02-28T05:50:40;99017.75;;;-7.88;69.13
69982;BME280;57319;56.274;43.980;2023-02-28T05:53:06;99009.09;;;-7.94;69.23
69982;BME280;57319;56.274;43.980;2023-02-28T05:55:31;99005.59;;;-7.98;69.30
69982;BME280;57319;56.274;43.980;2023-02-28T05:57:57;99003.19;;;-7.96;69.63
69982;BME280;57319;56.274;43.980;2023-02-28T06:00:22;98996.19;;;-8.04;69.53
69982;BME280;57319;56.274;43.980;2023-02-28T06:02:48;98995.31;;;-8.04;69.63
69982;BME280;57319;56.274;43.980;2023-02-28T06:05:16;98973.16;;;-8.14;69.72
69982;BME280;57319;56.274;43.980;2023-02-28T06:07:43;98968.31;;;-8.11;69.74
69982;BME280;57319;56.274;43.980;2023-02-28T06:10:12;98952.31;;;-8.15;69.82
69982;BME280;57319;56.274;43.980;2023-02-28T06:12:38;98952.75;;;-8.06;69.72
69982;BME280;57319;56.274;43.980;2023-02-28T06:15:04;98953.94;;;-7.99;69.38
69982;BME280;57319;56.274;43.980;2023-02-28T06:17:30;98939.22;;;-7.93;69.13
69982;BME280;57319;56.274;43.980;2023-02-28T06:19:56;98929.00;;;-7.97;69.23
69982;BME280;57319;56.274;43.980;2023-02-28T06:22:22;98901.69;;;-7.94;68.94
69982;BME280;57319;56.274;43.980;2023-02-28T06:24:47;98923.38;;;-7.75;68.31
69982;BME280;57319;56.274;43.980;2023-02-28T06:27:13;98905.13;;;-7.74;67.87
69982;BME280;57319;56.274;43.980;2023-02-28T06:29:38;98899.59;;;-7.67;67.93
69982;BME280;57319;56.274;43.980;2023-02-28T06:32:07;98897.47;;;-7.59;67.53
69982;BME280;57319;56.274;43.980;2023-02-28T06:34:33;98878.09;;;-7.45;67.28
69982;BME280;57319;56.274;43.980;2023-02-28T06:37:01;98867.63;;;-7.37;66.87
69982;BME280;57319;56.274;43.980;2023-02-28T06:39:29;98863.03;;;-7.27;66.71
69982;BME280;57319;56.274;43.980;2023-02-28T06:41:54;98856.00;;;-7.17;66.25
69982;BME280;57319;56.274;43.980;2023-02-28T06:44:20;98827.03;;;-7.31;65.62
69982;BME280;57319;56.274;43.980;2023-02-28T06:46:46;98832.13;;;-7.10;65.42
69982;BME280;57319;56.274;43.980;2023-02-28T06:49:12;98821.03;;;-6.95;65.60
69982;BME280;57319;56.274;43.980;2023-02-28T06:51:39;98818.69;;;-6.92;64.76
69982;BME280;57319;56.274;43.980;2023-02-28T06:54:07;98801.91;;;-6.74;64.08
69982;BME280;57319;56.274;43.980;2023-02-28T06:56:36;98798.34;;;-6.59;64.12
69982;BME280;57319;56.274;43.980;2023-02-28T06:59:03;98799.91;;;-6.61;63.67
69982;BME280;57319;56.274;43.980;2023-02-28T07:01:30;98771.97;;;-6.51;63.96
69982;BME280;57319;56.274;43.980;2023-02-28T07:04:00;98791.81;;;-6.35;63.82
69982;BME280;57319;56.274;43.980;2023-02-28T07:06:29;98780.63;;;-6.43;63.76
69982;BME280;57319;56.274;43.980;2023-02-28T07:08:55;98761.28;;;-6.47;63.96
69982;BME280;57319;56.274;43.980;2023-02-28T07:11:22;98760.72;;;-6.40;63.00
69982;BME280;57319;56.274;43.980;2023-02-28T07:13:51;98764.63;;;-6.24;62.94
69982;BME280;57319;56.274;43.980;2023-02-28T07:16:17;98758.78;;;-6.47;63.38
69982;BME280;57319;56.274;43.980;2023-02-28T07:18:43;98743.97;;;-6.41;63.45
69982;BME280;57319;56.274;43.980;2023-02-28T07:21:11;98735.94;;;-6.55;64.49
69982;BME280;57319;56.274;43.980;2023-02-28T07:23:38;98726.91;;;-6.51;64.20
69982;BME280;57319;56.274;43.980;2023-02-28T07:26:05;98708.13;;;-6.40;64.13
69982;BME280;57319;56.274;43.980;2023-02-28T07:28:32;98724.66;;;-6.22;63.29
69982;BME280;57319;56.274;43.980;2023-02-28T07:31:03;98720.31;;;-6.04;62.78
69982;BME280;57319;56.274;43.980;2023-02-28T07:33:29;98722.19;;;-5.74;62.31
69982;BME280;57319;56.274;43.980;2023-02-28T07:36:04;98712.28;;;-5.47;61.65
69982;BME280;57319;56.274;43.980;2023-02-28T07:38:30;98709.25;;;-5.36;60.55
69982;BME280;57319;56.274;43.980;2023-02-28T07:40:56;98701.34;;;-5.23;60.09
69982;BME280;57319;56.274;43.980;2023-02-28T07:43:21;98678.06;;;-5.19;58.99
69982;BME280;57319;56.274;43.980;2023-02-28T07:45:47;98676.22;;;-5.24;58.41
69982;BME280;57319;56.274;43.980;2023-02-28T07:48:13;98670.47;;;-5.22;58.81
69982;BME280;57319;56.274;43.980;2023-02-28T07:50:38;98665.00;;;-5.08;59.10
69982;BME280;57319;56.274;43.980;2023-02-28T07:53:04;98678.53;;;-5.05;58.13
69982;BME280;57319;56.274;43.980;2023-02-28T07:55:30;98661.94;;;-4.74;57.92
69982;BME280;57319;56.274;43.980;2023-02-28T07:57:57;98655.22;;;-4.17;57.06
69982;BME280;57319;56.274;43.980;2023-02-28T08:00:23;98653.72;;;-4.11;55.42
69982;BME280;57319;56.274;43.980;2023-02-28T08:02:48;98658.88;;;-4.06;56.07
69982;BME280;57319;56.274;43.980;2023-02-28T08:05:14;98643.06;;;-4.32;56.36
69982;BME280;57319;56.274;43.980;2023-02-28T08:07:40;98645.91;;;-4.50;56.71
69982;BME280;57319;56.274;43.980;2023-02-28T08:10:06;98656.69;;;-4.53;56.81
69982;BME280;57319;56.274;43.980;2023-02-28T08:12:34;98642.38;;;-4.55;57.31
69982;BME280;57319;56.274;43.980;2023-02-28T08:14:59;98649.25;;;-4.50;56.97
69982;BME280;57319;56.274;43.980;2023-02-28T08:17:25;98635.94;;;-4.47;57.77
69982;BME280;57319;56.274;43.980;2023-02-28T08:19:50;98645.34;;;-4.40;57.24
69982;BME280;57319;56.274;43.980;2023-02-28T08:22:16;98635.53;;;-4.32;57.06
69982;BME280;57319;56.274;43.980;2023-02-28T08:24:42;98648.81;;;-4.36;57.60
69982;BME280;57319;56.274;43.980;2023-02-28T08:27:08;98638.00;;;-4.34;57.68
69982;BME280;57319;56.274;43.980;2023-02-28T08:29:36;98644.00;;;-4.29;57.34
69982;BME280;57319;56.274;43.980;2023-02-28T08:32:02;98637.13;;;-4.34;57.82
69982;BME280;57319;56.274;43.980;2023-02-28T08:34:28;98624.19;;;-4.18;58.11
69982;BME280;57319;56.274;43.980;2023-02-28T08:36:53;98624.06;;;-4.22;58.95
69982;BME280;57319;56.274;43.980;2023-02-28T08:39:19;98626.13;;;-4.09;59.00
69982;BME280;57319;56.274;43.980;2023-02-28T08:41:45;98614.31;;;-4.12;58.49
69982;BME280;57319;56.274;43.980;2023-02-28T08:44:10;98631.59;;;-4.22;59.25
69982;BME280;57319;56.274;43.980;2023-02-28T08:46:36;98620.97;;;-4.43;59.79
69982;BME280;57319;56.274;43.980;2023-02-28T08:49:02;98631.19;;;-4.38;60.14
69982;BME280;57319;56.274;43.980;2023-02-28T08:51:28;98603.50;;;-4.39;59.86
69982;BME280;57319;56.274;43.980;2023-02-28T08:54:00;98582.03;;;-4.28;60.04
69982;BME280;57319;56.274;43.980;2023-02-28T08:56:27;98618.78;;;-4.32;60.32
69982;BME280;57319;56.274;43.980;2023-02-28T08:58:55;98601.69;;;-4.45;59.46
69982;BME280;57319;56.274;43.980;2023-02-28T09:01:24;98611.59;;;-4.48;59.82
69982;BME280;57319;56.274;43.980;2023-02-28T09:03:50;98611.59;;;-4.48;60.56
69982;BME280;57319;56.274;43.980;2023-02-28T09:06:17;98595.34;;;-4.61;60.92
69982;BME280;57319;56.274;43.980;2023-02-28T09:08:43;98593.53;;;-4.65;61.31
69982;BME280;57319;56.274;43.980;2023-02-28T09:11:10;98592.00;;;-4.62;61.41
69982;BME280;57319;56.274;43.980;2023-02-28T09:13:36;98597.19;;;-4.55;61.81
69982;BME280;57319;56.274;43.980;2023-02-28T09:16:03;98580.03;;;-4.69;61.28
69982;BME280;57319;56.274;43.980;2023-02-28T09:18:30;98601.72;;;-4.72;61.77
69982;BME280;57319;56.274;43.980;2023-02-28T09:20:56;98591.06;;;-4.64;61.35
69982;BME280;57319;56.274;43.980;2023-02-28T09:23:23;98602.19;;;-4.55;61.74
69982;BME280;57319;56.274;43.980;2023-02-28T09:25:51;98597.78;;;-4.64;61.81
69982;BME280;57319;56.274;43.980;2023-02-28T09:28:18;98584.09;;;-4.74;62.03
69982;BME280;57319;56.274;43.980;2023-02-28T09:30:46;98597.09;;;-4.58;62.10
69982;BME280;57319;56.274;43.980;2023-02-28T09:33:13;98589.38;;;-4.65;62.25
69982;BME280;57319;56.274;43.980;2023-02-28T09:35:38;98585.19;;;-4.66;62.36
69982;BME280;57319;56.274;43.980;2023-02-28T09:38:05;98584.53;;;-4.58;61.94
69982;BME280;57319;56.274;43.980;2023-02-28T09:40:39;98589.25;;;-4.69;62.40
69982;BME280;57319;56.274;43.980;2023-02-28T09:43:12;98578.53;;;-4.64;62.36
69982;BME280;57319;56.274;43.980;2023-02-28T09:45:41;98581.31;;;-4.83;62.89
69982;BME280;57319;56.274;43.980;2023-02-28T09:48:21;98569.28;;;-4.94;63.83
69982;BME280;57319;56.274;43.980;2023-02-28T09:50:55;98568.16;;;-5.03;64.95
69982;BME280;57319;56.274;43.980;2023-02-28T09:53:30;98568.06;;;-5.06;65.03
69982;BME280;57319;56.274;43.980;2023-02-28T09:56:40;98575.16;;;-4.93;65.69
69982;BME280;57319;56.274;43.980;2023-02-28T09:59:02;98571.06;;;-4.89;66.16
69982;BME280;57319;56.274;43.980;2023-02-28T10:04:33;98573.44;;;-4.94;67.27
69982;BME280;57319;56.274;43.980;2023-02-28T10:07:17;98570.03;;;-4.96;66.91
69982;BME280;57319;56.274;43.980;2023-02-28T10:09:47;98557.22;;;-5.05;67.61
69982;BME280;57319;56.274;43.980;2023-02-28T10:12:17;98569.84;;;-5.02;68.14
69982;BME280;57319;56.274;43.980;2023-02-28T10:14:46;98572.81;;;-5.14;68.52
69982;BME280;57319;56.274;43.980;2023-02-28T10:17:26;98577.09;;;-5.12;68.92
69982;BME280;57319;56.274;43.980;2023-02-28T10:20:07;98579.56;;;-5.13;70.22
69982;BME280;57319;56.274;43.980;2023-02-28T10:22:49;98567.69;;;-5.19;70.60
69982;BME280;57319;56.274;43.980;2023-02-28T10:25:28;98572.13;;;-5.10;71.02
69982;BME280;57319;56.274;43.980;2023-02-28T10:28:15;98560.03;;;-5.23;71.58
69982;BME280;57319;56.274;43.980;2023-02-28T10:30:49;98549.13;;;-5.24;71.57
69982;BME280;57319;56.274;43.980;2023-02-28T10:33:32;98532.97;;;-5.32;71.96
69982;BME280;57319;56.274;43.980;2023-02-28T10:35:59;98541.47;;;-5.29;72.99
69982;BME280;57319;56.274;43.980;2023-02-28T10:38:39;98538.78;;;-5.33;73.02
69982;BME280;57319;56.274;43.980;2023-02-28T10:41:27;98530.94;;;-5.17;72.81
69982;BME280;57319;56.274;43.980;2023-02-28T10:44:19;98531.53;;;-4.97;71.79
69982;BME280;57319;56.274;43.980;2023-02-28T10:46:45;98516.31;;;-5.03;72.10
69982;BME280;57319;56.274;43.980;2023-02-28T10:49:22;98519.66;;;-5.02;72.00
69982;BME280;57319;56.274;43.980;2023-02-28T10:51:52;98509.63;;;-5.02;72.58
69982;BME280;57319;56.274;43.980;2023-02-28T10:54:27;98511.50;;;-4.95;73.01
69982;BME280;57319;56.274;43.980;2023-02-28T10:57:18;98503.09;;;-4.97;73.63
69982;BME280;57319;56.274;43.980;2023-02-28T10:59:44;98499.34;;;-5.10;73.72
69982;BME280;57319;56.274;43.980;2023-02-28T11:02:36;98496.78;;;-5.12;73.87
69982;BME280;57319;56.274;43.980;2023-02-28T11:05:32;98498.56;;;-5.09;74.17
69982;BME280;57319;56.274;43.980;2023-02-28T11:08:14;98481.63;;;-5.16;74.74
69982;BME280;57319;56.274;43.980;2023-02-28T11:10:48;98487.44;;;-5.17;76.38
69982;BME280;57319;56.274;43.980;2023-02-28T11:13:21;98488.03;;;-5.26;76.83
69982;BME280;57319;56.274;43.980;2023-02-28T11:16:00;98481.69;;;-5.13;77.06
69982;BME280;57319;56.274;43.980;2023-02-28T11:18:30;98485.63;;;-5.21;77.01
69982;BME280;57319;56.274;43.980;2023-02-28T11:21:01;98474.50;;;-5.31;78.19
69982;BME280;57319;56.274;43.980;2023-02-28T11:23:30;98484.16;;;-5.15;78.27
69982;BME280;57319;56.274;43.980;2023-02-28T11:26:00;98490.38;;;-5.02;78.26
69982;BME280;57319;56.274;43.980;2023-02-28T11:28:32;98478.66;;;-5.03;78.35
69982;BME280;57319;56.274;43.980;2023-02-28T11:31:08;98475.16;;;-5.08;78.85
69982;BME280;57319;56.274;43.980;2023-02-28T11:33:44;98473.34;;;-5.14;79.58
69982;BME280;57319;56.274;43.980;2023-02-28T11:36:40;98469.25;;;-5.10;79.42
69982;BME280;57319;56.274;43.980;2023-02-28T11:39:11;98468.72;;;-5.00;79.74
69982;BME280;57319;56.274;43.980;2023-02-28T11:41:52;98484.66;;;-4.98;80.17
69982;BME280;57319;56.274;43.980;2023-02-28T11:47:14;98477.69;;;-5.08;81.23
69982;BME280;57319;56.274;43.980;2023-02-28T11:52:55;98473.38;;;-5.12;nan
69982;BME280;57319;56.274;43.980;2023-02-28T11:55:52;98468.34;;;-5.12;nan
69982;BME280;57319;56.274;43.980;2023-02-28T12:09:02;98453.22;;;-5.15;nan
69982;BME280;57319;56.274;43.980;2023-02-28T12:11:52;98439.81;;;-5.16;nan
69982;BME280;57319;56.274;43.980;2023-02-28T12:17:06;98440.75;;;-5.12;nan
69982;BME280;57319;56.274;43.980;2023-02-28T12:22:31;98438.41;;;-5.06;nan
69982;BME280;57319;56.274;43.980;2023-02-28T12:27:41;98433.66;;;-4.97;nan
69982;BME280;57319;56.274;43.980;2023-02-28T12:30:32;98414.16;;;-5.07;nan
69982;BME280;57319;56.274;43.980;2023-02-28T12:33:08;98425.03;;;-5.06;nan
69982;BME280;57319;56.274;43.980;2023-02-28T12:38:27;98411.56;;;-5.08;nan
69982;BME280;57319;56.274;43.980;2023-02-28T12:41:03;98426.69;;;-5.07;nan
69982;BME280;57319;56.274;43.980;2023-02-28T12:43:52;98397.47;;;-5.05;nan
69982;BME280;57319;56.274;43.980;2023-02-28T12:46:27;98373.41;;;-4.97;nan
69982;BME280;57319;56.274;43.980;2023-02-28T12:49:19;98383.38;;;-5.00;nan
69982;BME280;57319;56.274;43.980;2023-02-28T12:51:47;98383.53;;;-4.94;nan
69982;BME280;57319;56.274;43.980;2023-02-28T12:59:23;98366.69;;;-4.98;nan
69982;BME280;57319;56.274;43.980;2023-02-28T13:05:19;98367.75;;;-4.89;nan
69982;BME280;57319;56.274;43.980;2023-02-28T13:08:03;98378.38;;;-5.00;nan
69982;BME280;57319;56.274;43.980;2023-02-28T13:10:43;98361.53;;;-5.04;nan
69982;BME280;57319;56.274;43.980;2023-02-28T13:13:24;98365.75;;;-5.03;nan
69982;BME280;57319;56.274;43.980;2023-02-28T13:16:09;98364.63;;;-5.13;nan
69982;BME280;57319;56.274;43.980;2023-02-28T13:18:36;98358.66;;;-5.18;nan
69982;BME280;57319;56.274;43.980;2023-02-28T13:21:04;98381.41;;;-5.10;nan
69982;BME280;57319;56.274;43.980;2023-02-28T13:29:01;98369.69;;;-5.11;nan
69982;BME280;57319;56.274;43.980;2023-02-28T13:31:29;98362.19;;;-5.11;nan
69982;BME280;57319;56.274;43.980;2023-02-28T13:36:31;98368.00;;;-5.12;nan
69982;BME280;57319;56.274;43.980;2023-02-28T13:39:01;98369.88;;;-5.03;nan
69982;BME280;57319;56.274;43.980;2023-02-28T13:51:49;98349.63;;;-5.11;nan
69982;BME280;57319;56.274;43.980;2023-02-28T14:07:43;98349.66;;;-5.09;nan
69982;BME280;57319;56.274;43.980;2023-02-28T14:10:20;98346.13;;;-5.16;nan
69982;BME280;57319;56.274;43.980;2023-02-28T14:18:01;98336.06;;;-5.18;nan
69982;BME280;57319;56.274;43.980;2023-02-28T14:20:31;98340.34;;;-5.14;nan
69982;BME280;57319;56.274;43.980;2023-02-28T14:31:17;98316.72;;;-5.22;nan
69982;BME280;57319;56.274;43.980;2023-02-28T14:36:27;98321.22;;;-5.08;nan
69982;BME280;57319;56.274;43.980;2023-02-28T14:39:06;98317.00;;;-5.11;nan
69982;BME280;57319;56.274;43.980;2023-02-28T14:41:40;98325.19;;;-5.17;nan
69982;BME280;57319;56.274;43.980;2023-02-28T14:46:42;98321.31;;;-5.07;nan
69982;BME280;57319;56.274;43.980;2023-02-28T14:49:44;98313.78;;;-5.07;nan
69982;BME280;57319;56.274;43.980;2023-02-28T14:52:28;98296.03;;;-5.13;nan
69982;BME280;57319;56.274;43.980;2023-02-28T14:54:58;98314.50;;;-5.11;nan
69982;BME280;57319;56.274;43.980;2023-02-28T14:57:30;98311.25;;;-5.07;nan
69982;BME280;57319;56.274;43.980;2023-02-28T15:00:27;98296.84;;;-5.14;nan
69982;BME280;57319;56.274;43.980;2023-02-28T15:02:54;98320.56;;;-5.03;nan
69982;BME280;57319;56.274;43.980;2023-02-28T15:05:30;98307.00;;;-5.09;nan
69982;BME280;57319;56.274;43.980;2023-02-28T15:08:15;98307.00;;;-5.09;nan
69982;BME280;57319;56.274;43.980;2023-02-28T15:10:49;98302.81;;;-5.09;nan
69982;BME280;57319;56.274;43.980;2023-02-28T15:13:16;98307.09;;;-5.06;nan
69982;BME280;57319;56.274;43.980;2023-02-28T15:16:00;98295.34;;;-5.07;nan
69982;BME280;57319;56.274;43.980;2023-02-28T15:21:32;98285.34;;;-5.06;nan
69982;BME280;57319;56.274;43.980;2023-02-28T15:26:28;98302.16;;;-5.02;nan
69982;BME280;57319;56.274;43.980;2023-02-28T15:29:06;98284.44;;;-5.09;nan